sensor_id;sensor_type;location;lat;lon;timestamp;P1;durP1;ratioP1;P2;durP2;ratioP2
81150;SDS011;70629;-26.026;27.976;2023-12-20T00:00:08;17.58;;;14.48;;
81150;SDS011;70629;-26.026;27.976;2023-12-20T00:00:48;20.08;;;15.68;;
81150;SDS011;70629;-26.026;27.976;2023-12-20T00:01:28;17.00;;;13.65;;
81150;SDS011;70629;-26.026;27.976;2023-12-20T00:02:08;18.55;;;15.95;;
81150;SDS011;70629;-26.026;27.976;2023-12-20T00:02:48;18.40;;;14.07;;
81150;SDS011;70629;-26.026;27.976;2023-12-20T00:03:28;16.67;;;13.80;;
81150;SDS011;70629;-26.026;27.976;2023-12-20T00:04:20;18.92;;;14.00;;
81150;SDS011;70629;-26.026;27.976;2023-12-20T00:05:00;17.95;;;14.20;;
81150;SDS011;70629;-26.026;27.976;2023-12-20T00:05:40;18.83;;;13.50;;
81150;SDS011;70629;-26.026;27.976;2023-12-20T00:06:20;17.20;;;14.60;;
81150;SDS011;70629;-26.026;27.976;2023-12-20T00:07:00;19.65;;;15.70;;
81150;SDS011;70629;-26.026;27.976;2023-12-20T00:07:40;18.80;;;15.23;;
81150;SDS011;70629;-26.026;27.976;2023-12-20T00:08:21;18.42;;;14.93;;
81150;SDS011;70629;-26.026;27.976;2023-12-20T00:09:00;17.42;;;15.50;;
81150;SDS011;70629;-26.026;27.976;2023-12-20T00:09:40;17.25;;;13.63;;
81150;SDS011;70629;-26.026;27.976;2023-12-20T00:10:20;17.25;;;14.68;;
81150;SDS011;70629;-26.026;27.976;2023-12-20T00:11:00;17.73;;;13.02;;
81150;SDS011;70629;-26.026;27.976;2023-12-20T00:11:40;16.70;;;14.65;;
81150;SDS011;70629;-26.026;27.976;2023-12-20T00:12:21;17.30;;;13.20;;
81150;SDS011;70629;-26.026;27.976;2023-12-20T00:13:00;21.85;;;14.80;;
81150;SDS011;70629;-26.026;27.976;2023-12-20T00:13:40;18.38;;;14.55;;
81150;SDS011;70629;-26.026;27.976;2023-12-20T00:14:20;16.80;;;12.88;;
81150;SDS011;70629;-26.026;27.976;2023-12-20T00:15:00;15.60;;;13.88;;
81150;SDS011;70629;-26.026;27.976;2023-12-20T00:15:40;17.27;;;13.50;;
81150;SDS011;70629;-26.026;27.976;2023-12-20T00:16:20;17.70;;;14.30;;
81150;SDS011;70629;-26.026;27.976;2023-12-20T00:16:59;17.92;;;15.35;;
81150;SDS011;70629;-26.026;27.976;2023-12-20T00:17:39;19.95;;;14.77;;
81150;SDS011;70629;-26.026;27.976;2023-12-20T00:18:19;16.08;;;13.23;;
81150;SDS011;70629;-26.026;27.976;2023-12-20T00:18:59;18.88;;;15.32;;
81150;SDS011;70629;-26.026;27.976;2023-12-20T00:19:39;19.13;;;13.85;;
81150;SDS011;70629;-26.026;27.976;2023-12-20T00:20:19;16.63;;;13.75;;
81150;SDS011;70629;-26.026;27.976;2023-12-20T00:20:59;20.25;;;14.05;;
81150;SDS011;70629;-26.026;27.976;2023-12-20T00:21:39;16.52;;;14.75;;
81150;SDS011;70629;-26.026;27.976;2023-12-20T00:22:19;20.73;;;14.38;;
81150;SDS011;70629;-26.026;27.976;2023-12-20T00:22:58;17.88;;;13.68;;
81150;SDS011;70629;-26.026;27.976;2023-12-20T00:23:38;17.05;;;14.63;;
81150;SDS011;70629;-26.026;27.976;2023-12-20T00:24:18;15.90;;;12.85;;
81150;SDS011;70629;-26.026;27.976;2023-12-20T00:24:59;17.95;;;13.80;;
81150;SDS011;70629;-26.026;27.976;2023-12-20T00:25:39;16.45;;;13.00;;
81150;SDS011;70629;-26.026;27.976;2023-12-20T00:26:18;18.40;;;13.73;;
81150;SDS011;70629;-26.026;27.976;2023-12-20T00:26:58;18.77;;;13.55;;
81150;SDS011;70629;-26.026;27.976;2023-12-20T00:27:38;18.27;;;16.30;;
81150;SDS011;70629;-26.026;27.976;2023-12-20T00:28:18;17.48;;;14.75;;
81150;SDS011;70629;-26.026;27.976;2023-12-20T00:28:58;19.48;;;16.55;;
81150;SDS011;70629;-26.026;27.976;2023-12-20T00:29:38;20.98;;;16.77;;
81150;SDS011;70629;-26.026;27.976;2023-12-20T00:30:18;20.80;;;14.77;;
81150;SDS011;70629;-26.026;27.976;2023-12-20T00:30:58;21.38;;;17.42;;
81150;SDS011;70629;-26.026;27.976;2023-12-20T00:31:38;25.20;;;17.52;;
81150;SDS011;70629;-26.026;27.976;2023-12-20T00:32:18;26.67;;;18.83;;
81150;SDS011;70629;-26.026;27.976;2023-12-20T00:32:58;30.25;;;20.73;;
81150;SDS011;70629;-26.026;27.976;2023-12-20T00:33:38;31.42;;;22.08;;
81150;SDS011;70629;-26.026;27.976;2023-12-20T00:34:18;29.35;;;22.27;;
81150;SDS011;70629;-26.026;27.976;2023-12-20T00:34:58;33.25;;;20.90;;
81150;SDS011;70629;-26.026;27.976;2023-12-20T00:35:38;30.15;;;22.92;;
81150;SDS011;70629;-26.026;27.976;2023-12-20T00:36:18;27.48;;;21.13;;
81150;SDS011;70629;-26.026;27.976;2023-12-20T00:36:58;27.60;;;20.95;;
81150;SDS011;70629;-26.026;27.976;2023-12-20T00:37:38;25.77;;;18.23;;
81150;SDS011;70629;-26.026;27.976;2023-12-20T00:38:18;24.55;;;17.30;;
81150;SDS011;70629;-26.026;27.976;2023-12-20T00:38:57;25.20;;;17.33;;
81150;SDS011;70629;-26.026;27.976;2023-12-20T00:39:37;26.25;;;17.58;;
81150;SDS011;70629;-26.026;27.976;2023-12-20T00:40:17;26.02;;;18.65;;
81150;SDS011;70629;-26.026;27.976;2023-12-20T00:40:57;23.23;;;17.35;;
81150;SDS011;70629;-26.026;27.976;2023-12-20T00:41:37;21.40;;;17.13;;
81150;SDS011;70629;-26.026;27.976;2023-12-20T00:42:16;23.52;;;16.88;;
81150;SDS011;70629;-26.026;27.976;2023-12-20T00:42:56;22.45;;;16.95;;
81150;SDS011;70629;-26.026;27.976;2023-12-20T00:43:36;19.58;;;15.82;;
81150;SDS011;70629;-26.026;27.976;2023-12-20T00:44:16;19.42;;;15.00;;
81150;SDS011;70629;-26.026;27.976;2023-12-20T00:44:56;18.48;;;14.88;;
81150;SDS011;70629;-26.026;27.976;2023-12-20T00:45:36;16.70;;;13.52;;
81150;SDS011;70629;-26.026;27.976;2023-12-20T00:46:16;20.63;;;14.93;;
81150;SDS011;70629;-26.026;27.976;2023-12-20T00:46:57;16.70;;;13.98;;
81150;SDS011;70629;-26.026;27.976;2023-12-20T00:47:36;15.98;;;13.27;;
81150;SDS011;70629;-26.026;27.976;2023-12-20T00:48:16;16.42;;;14.13;;
81150;SDS011;70629;-26.026;27.976;2023-12-20T00:48:56;17.52;;;13.32;;
81150;SDS011;70629;-26.026;27.976;2023-12-20T00:49:36;13.60;;;11.85;;
81150;SDS011;70629;-26.026;27.976;2023-12-20T00:50:16;16.45;;;13.43;;
81150;SDS011;70629;-26.026;27.976;2023-12-20T00:50:56;12.85;;;11.43;;
81150;SDS011;70629;-26.026;27.976;2023-12-20T00:51:36;16.30;;;13.27;;
81150;SDS011;70629;-26.026;27.976;2023-12-20T00:52:16;14.65;;;13.00;;
81150;SDS011;70629;-26.026;27.976;2023-12-20T00:52:56;15.65;;;13.95;;
81150;SDS011;70629;-26.026;27.976;2023-12-20T00:53:36;16.88;;;13.20;;
81150;SDS011;70629;-26.026;27.976;2023-12-20T00:54:16;14.23;;;12.73;;
81150;SDS011;70629;-26.026;27.976;2023-12-20T00:54:56;14.10;;;12.60;;
81150;SDS011;70629;-26.026;27.976;2023-12-20T00:55:35;15.20;;;12.57;;
81150;SDS011;70629;-26.026;27.976;2023-12-20T00:56:15;15.40;;;13.35;;
81150;SDS011;70629;-26.026;27.976;2023-12-20T00:56:55;15.48;;;12.20;;
81150;SDS011;70629;-26.026;27.976;2023-12-20T00:57:35;16.02;;;11.73;;
81150;SDS011;70629;-26.026;27.976;2023-12-20T00:58:14;14.30;;;11.15;;
81150;SDS011;70629;-26.026;27.976;2023-12-20T00:58:54;15.75;;;13.23;;
81150;SDS011;70629;-26.026;27.976;2023-12-20T00:59:34;14.05;;;12.65;;
81150;SDS011;70629;-26.026;27.976;2023-12-20T01:00:14;12.73;;;11.43;;
81150;SDS011;70629;-26.026;27.976;2023-12-20T01:00:54;13.55;;;11.93;;
81150;SDS011;70629;-26.026;27.976;2023-12-20T01:01:35;14.45;;;12.95;;
81150;SDS011;70629;-26.026;27.976;2023-12-20T01:02:14;14.55;;;12.27;;
81150;SDS011;70629;-26.026;27.976;2023-12-20T01:02:54;15.50;;;13.15;;
81150;SDS011;70629;-26.026;27.976;2023-12-20T01:03:34;14.90;;;11.25;;
81150;SDS011;70629;-26.026;27.976;2023-12-20T01:04:14;15.18;;;13.57;;
81150;SDS011;70629;-26.026;27.976;2023-12-20T01:04:55;14.60;;;12.73;;
81150;SDS011;70629;-26.026;27.976;2023-12-20T01:05:34;15.82;;;13.00;;
81150;SDS011;70629;-26.026;27.976;2023-12-20T01:06:14;17.00;;;13.40;;
81150;SDS011;70629;-26.026;27.976;2023-12-20T01:06:54;15.30;;;13.60;;
81150;SDS011;70629;-26.026;27.976;2023-12-20T01:07:34;15.07;;;13.48;;
81150;SDS011;70629;-26.026;27.976;2023-12-20T01:08:14;15.07;;;13.27;;
81150;SDS011;70629;-26.026;27.976;2023-12-20T01:08:54;15.70;;;13.93;;
81150;SDS011;70629;-26.026;27.976;2023-12-20T01:09:34;14.27;;;12.38;;
81150;SDS011;70629;-26.026;27.976;2023-12-20T01:10:14;14.88;;;12.50;;
81150;SDS011;70629;-26.026;27.976;2023-12-20T01:10:54;14.48;;;12.98;;
81150;SDS011;70629;-26.026;27.976;2023-12-20T01:11:34;14.60;;;12.95;;
81150;SDS011;70629;-26.026;27.976;2023-12-20T01:12:13;16.05;;;12.93;;
81150;SDS011;70629;-26.026;27.976;2023-12-20T01:12:53;16.73;;;13.00;;
81150;SDS011;70629;-26.026;27.976;2023-12-20T01:13:33;16.42;;;13.85;;
81150;SDS011;70629;-26.026;27.976;2023-12-20T01:14:13;14.95;;;13.30;;
81150;SDS011;70629;-26.026;27.976;2023-12-20T01:14:53;14.02;;;11.93;;
81150;SDS011;70629;-26.026;27.976;2023-12-20T01:15:32;14.90;;;13.13;;
81150;SDS011;70629;-26.026;27.976;2023-12-20T01:16:12;15.80;;;13.43;;
81150;SDS011;70629;-26.026;27.976;2023-12-20T01:16:52;15.10;;;13.07;;
81150;SDS011;70629;-26.026;27.976;2023-12-20T01:17:32;16.65;;;13.68;;
81150;SDS011;70629;-26.026;27.976;2023-12-20T01:18:12;14.68;;;13.07;;
81150;SDS011;70629;-26.026;27.976;2023-12-20T01:18:53;14.70;;;12.10;;
81150;SDS011;70629;-26.026;27.976;2023-12-20T01:19:32;13.88;;;12.35;;
81150;SDS011;70629;-26.026;27.976;2023-12-20T01:20:13;20.95;;;12.95;;
81150;SDS011;70629;-26.026;27.976;2023-12-20T01:20:53;15.68;;;13.50;;
81150;SDS011;70629;-26.026;27.976;2023-12-20T01:21:33;15.73;;;12.88;;
81150;SDS011;70629;-26.026;27.976;2023-12-20T01:22:13;15.55;;;13.55;;
81150;SDS011;70629;-26.026;27.976;2023-12-20T01:22:53;15.05;;;13.10;;
81150;SDS011;70629;-26.026;27.976;2023-12-20T01:23:32;15.40;;;12.90;;
81150;SDS011;70629;-26.026;27.976;2023-12-20T01:24:12;16.92;;;13.57;;
81150;SDS011;70629;-26.026;27.976;2023-12-20T01:24:52;15.73;;;13.85;;
81150;SDS011;70629;-26.026;27.976;2023-12-20T01:25:32;16.77;;;11.73;;
81150;SDS011;70629;-26.026;27.976;2023-12-20T01:26:12;14.80;;;13.02;;
81150;SDS011;70629;-26.026;27.976;2023-12-20T01:26:53;15.55;;;13.95;;
81150;SDS011;70629;-26.026;27.976;2023-12-20T01:27:33;15.43;;;12.65;;
81150;SDS011;70629;-26.026;27.976;2023-12-20T01:28:13;13.93;;;11.20;;
81150;SDS011;70629;-26.026;27.976;2023-12-20T01:28:53;14.73;;;13.10;;
81150;SDS011;70629;-26.026;27.976;2023-12-20T01:29:32;16.02;;;12.73;;
81150;SDS011;70629;-26.026;27.976;2023-12-20T01:30:12;14.43;;;12.80;;
81150;SDS011;70629;-26.026;27.976;2023-12-20T01:30:53;15.27;;;13.20;;
81150;SDS011;70629;-26.026;27.976;2023-12-20T01:31:33;15.55;;;12.75;;
81150;SDS011;70629;-26.026;27.976;2023-12-20T01:32:12;14.93;;;12.77;;
81150;SDS011;70629;-26.026;27.976;2023-12-20T01:32:52;15.32;;;12.45;;
81150;SDS011;70629;-26.026;27.976;2023-12-20T01:33:33;14.93;;;13.32;;
81150;SDS011;70629;-26.026;27.976;2023-12-20T01:34:13;15.73;;;12.93;;
81150;SDS011;70629;-26.026;27.976;2023-12-20T01:34:53;15.95;;;13.70;;
81150;SDS011;70629;-26.026;27.976;2023-12-20T01:35:37;15.38;;;13.82;;
81150;SDS011;70629;-26.026;27.976;2023-12-20T01:36:17;14.68;;;12.48;;
81150;SDS011;70629;-26.026;27.976;2023-12-20T01:36:57;16.95;;;13.57;;
81150;SDS011;70629;-26.026;27.976;2023-12-20T01:37:37;16.05;;;13.75;;
81150;SDS011;70629;-26.026;27.976;2023-12-20T01:38:16;18.23;;;14.40;;
81150;SDS011;70629;-26.026;27.976;2023-12-20T01:38:57;15.38;;;13.73;;
81150;SDS011;70629;-26.026;27.976;2023-12-20T01:39:37;17.77;;;14.60;;
81150;SDS011;70629;-26.026;27.976;2023-12-20T01:40:17;16.38;;;12.95;;
81150;SDS011;70629;-26.026;27.976;2023-12-20T01:40:56;16.70;;;13.82;;
81150;SDS011;70629;-26.026;27.976;2023-12-20T01:41:36;15.77;;;12.50;;
81150;SDS011;70629;-26.026;27.976;2023-12-20T01:42:16;14.70;;;13.18;;
81150;SDS011;70629;-26.026;27.976;2023-12-20T01:43:00;15.25;;;13.65;;
81150;SDS011;70629;-26.026;27.976;2023-12-20T01:43:51;14.13;;;12.63;;
81150;SDS011;70629;-26.026;27.976;2023-12-20T01:44:32;14.18;;;12.48;;
81150;SDS011;70629;-26.026;27.976;2023-12-20T01:45:11;12.77;;;11.40;;
81150;SDS011;70629;-26.026;27.976;2023-12-20T01:45:51;13.50;;;11.60;;
81150;SDS011;70629;-26.026;27.976;2023-12-20T01:46:31;12.70;;;11.40;;
81150;SDS011;70629;-26.026;27.976;2023-12-20T01:47:12;13.40;;;12.00;;
81150;SDS011;70629;-26.026;27.976;2023-12-20T01:47:53;13.98;;;11.85;;
81150;SDS011;70629;-26.026;27.976;2023-12-20T01:48:35;14.35;;;11.38;;
81150;SDS011;70629;-26.026;27.976;2023-12-20T01:49:15;14.55;;;12.07;;
81150;SDS011;70629;-26.026;27.976;2023-12-20T01:49:55;14.25;;;11.70;;
81150;SDS011;70629;-26.026;27.976;2023-12-20T01:50:36;12.43;;;10.52;;
81150;SDS011;70629;-26.026;27.976;2023-12-20T01:51:16;13.27;;;11.90;;
81150;SDS011;70629;-26.026;27.976;2023-12-20T01:51:56;12.18;;;10.82;;
81150;SDS011;70629;-26.026;27.976;2023-12-20T01:52:37;15.32;;;12.45;;
81150;SDS011;70629;-26.026;27.976;2023-12-20T01:53:17;13.27;;;11.88;;
81150;SDS011;70629;-26.026;27.976;2023-12-20T01:53:59;13.60;;;12.18;;
81150;SDS011;70629;-26.026;27.976;2023-12-20T01:54:40;13.57;;;11.82;;
81150;SDS011;70629;-26.026;27.976;2023-12-20T01:55:22;14.10;;;11.48;;
81150;SDS011;70629;-26.026;27.976;2023-12-20T01:56:01;11.15;;;9.93;;
81150;SDS011;70629;-26.026;27.976;2023-12-20T01:56:41;11.77;;;10.13;;
81150;SDS011;70629;-26.026;27.976;2023-12-20T01:57:22;11.52;;;9.90;;
81150;SDS011;70629;-26.026;27.976;2023-12-20T01:58:02;12.00;;;10.32;;
81150;SDS011;70629;-26.026;27.976;2023-12-20T01:58:44;11.57;;;10.38;;
81150;SDS011;70629;-26.026;27.976;2023-12-20T01:59:25;12.88;;;10.55;;
81150;SDS011;70629;-26.026;27.976;2023-12-20T02:00:06;11.35;;;9.82;;
81150;SDS011;70629;-26.026;27.976;2023-12-20T02:00:48;10.85;;;9.18;;
81150;SDS011;70629;-26.026;27.976;2023-12-20T02:01:28;11.63;;;9.38;;
81150;SDS011;70629;-26.026;27.976;2023-12-20T02:02:08;10.45;;;9.40;;
81150;SDS011;70629;-26.026;27.976;2023-12-20T02:02:52;12.18;;;9.23;;
81150;SDS011;70629;-26.026;27.976;2023-12-20T02:03:34;10.20;;;8.32;;
81150;SDS011;70629;-26.026;27.976;2023-12-20T02:04:15;11.38;;;8.90;;
81150;SDS011;70629;-26.026;27.976;2023-12-20T02:04:56;11.57;;;9.45;;
81150;SDS011;70629;-26.026;27.976;2023-12-20T02:05:37;10.07;;;8.27;;
81150;SDS011;70629;-26.026;27.976;2023-12-20T02:06:18;11.18;;;8.98;;
81150;SDS011;70629;-26.026;27.976;2023-12-20T02:07:01;10.48;;;8.07;;
81150;SDS011;70629;-26.026;27.976;2023-12-20T02:07:42;12.00;;;9.18;;
81150;SDS011;70629;-26.026;27.976;2023-12-20T02:08:23;11.05;;;9.23;;
81150;SDS011;70629;-26.026;27.976;2023-12-20T02:09:03;11.90;;;9.75;;
81150;SDS011;70629;-26.026;27.976;2023-12-20T02:09:43;11.32;;;9.55;;
81150;SDS011;70629;-26.026;27.976;2023-12-20T02:10:23;13.48;;;9.75;;
81150;SDS011;70629;-26.026;27.976;2023-12-20T02:11:03;11.65;;;9.23;;
81150;SDS011;70629;-26.026;27.976;2023-12-20T02:11:43;10.63;;;9.52;;
81150;SDS011;70629;-26.026;27.976;2023-12-20T02:12:23;12.30;;;9.90;;
81150;SDS011;70629;-26.026;27.976;2023-12-20T02:13:03;11.93;;;9.98;;
81150;SDS011;70629;-26.026;27.976;2023-12-20T02:13:44;12.18;;;9.77;;
81150;SDS011;70629;-26.026;27.976;2023-12-20T02:14:24;12.70;;;10.13;;
81150;SDS011;70629;-26.026;27.976;2023-12-20T02:15:04;11.38;;;9.73;;
81150;SDS011;70629;-26.026;27.976;2023-12-20T02:15:44;11.45;;;10.13;;
81150;SDS011;70629;-26.026;27.976;2023-12-20T02:16:24;12.23;;;8.75;;
81150;SDS011;70629;-26.026;27.976;2023-12-20T02:17:04;11.15;;;9.40;;
81150;SDS011;70629;-26.026;27.976;2023-12-20T02:17:44;11.80;;;9.50;;
81150;SDS011;70629;-26.026;27.976;2023-12-20T02:18:26;10.82;;;9.73;;
81150;SDS011;70629;-26.026;27.976;2023-12-20T02:19:07;10.63;;;9.52;;
81150;SDS011;70629;-26.026;27.976;2023-12-20T02:19:53;11.45;;;9.27;;
81150;SDS011;70629;-26.026;27.976;2023-12-20T02:20:33;11.15;;;9.15;;
81150;SDS011;70629;-26.026;27.976;2023-12-20T02:21:13;10.93;;;9.63;;
81150;SDS011;70629;-26.026;27.976;2023-12-20T02:22:46;10.73;;;8.68;;
81150;SDS011;70629;-26.026;27.976;2023-12-20T02:23:26;12.50;;;9.70;;
81150;SDS011;70629;-26.026;27.976;2023-12-20T02:24:06;11.82;;;10.15;;
81150;SDS011;70629;-26.026;27.976;2023-12-20T02:24:45;10.45;;;8.73;;
81150;SDS011;70629;-26.026;27.976;2023-12-20T02:25:25;12.60;;;9.52;;
81150;SDS011;70629;-26.026;27.976;2023-12-20T02:26:05;12.65;;;9.10;;
81150;SDS011;70629;-26.026;27.976;2023-12-20T02:26:45;13.00;;;10.55;;
81150;SDS011;70629;-26.026;27.976;2023-12-20T02:27:25;12.65;;;10.10;;
81150;SDS011;70629;-26.026;27.976;2023-12-20T02:28:06;11.13;;;9.82;;
81150;SDS011;70629;-26.026;27.976;2023-12-20T02:28:46;10.45;;;9.30;;
81150;SDS011;70629;-26.026;27.976;2023-12-20T02:29:26;10.63;;;9.00;;
81150;SDS011;70629;-26.026;27.976;2023-12-20T02:30:06;11.38;;;9.32;;
81150;SDS011;70629;-26.026;27.976;2023-12-20T02:30:47;11.07;;;9.15;;
81150;SDS011;70629;-26.026;27.976;2023-12-20T02:31:28;9.98;;;8.93;;
81150;SDS011;70629;-26.026;27.976;2023-12-20T02:32:08;10.68;;;9.25;;
81150;SDS011;70629;-26.026;27.976;2023-12-20T02:32:48;11.18;;;9.27;;
81150;SDS011;70629;-26.026;27.976;2023-12-20T02:33:30;11.88;;;9.45;;
81150;SDS011;70629;-26.026;27.976;2023-12-20T02:34:10;10.70;;;8.75;;
81150;SDS011;70629;-26.026;27.976;2023-12-20T02:34:50;11.07;;;9.70;;
81150;SDS011;70629;-26.026;27.976;2023-12-20T02:35:30;10.73;;;9.27;;
81150;SDS011;70629;-26.026;27.976;2023-12-20T02:36:09;11.25;;;9.73;;
81150;SDS011;70629;-26.026;27.976;2023-12-20T02:36:50;12.07;;;9.90;;
81150;SDS011;70629;-26.026;27.976;2023-12-20T02:37:29;10.65;;;9.38;;
81150;SDS011;70629;-26.026;27.976;2023-12-20T02:38:09;11.98;;;9.77;;
81150;SDS011;70629;-26.026;27.976;2023-12-20T02:38:49;11.13;;;9.93;;
81150;SDS011;70629;-26.026;27.976;2023-12-20T02:39:29;10.13;;;8.75;;
81150;SDS011;70629;-26.026;27.976;2023-12-20T02:40:09;13.32;;;9.63;;
81150;SDS011;70629;-26.026;27.976;2023-12-20T02:40:49;13.70;;;10.43;;
81150;SDS011;70629;-26.026;27.976;2023-12-20T02:41:29;11.40;;;10.25;;
81150;SDS011;70629;-26.026;27.976;2023-12-20T02:42:09;11.73;;;9.98;;
81150;SDS011;70629;-26.026;27.976;2023-12-20T02:42:49;12.07;;;10.10;;
81150;SDS011;70629;-26.026;27.976;2023-12-20T02:43:29;13.63;;;9.40;;
81150;SDS011;70629;-26.026;27.976;2023-12-20T02:44:08;11.30;;;9.30;;
81150;SDS011;70629;-26.026;27.976;2023-12-20T02:44:48;12.85;;;9.10;;
81150;SDS011;70629;-26.026;27.976;2023-12-20T02:45:28;12.60;;;9.65;;
81150;SDS011;70629;-26.026;27.976;2023-12-20T02:46:08;11.95;;;10.02;;
81150;SDS011;70629;-26.026;27.976;2023-12-20T02:46:48;12.40;;;10.13;;
81150;SDS011;70629;-26.026;27.976;2023-12-20T02:47:28;11.13;;;9.05;;
81150;SDS011;70629;-26.026;27.976;2023-12-20T02:48:08;11.95;;;9.10;;
81150;SDS011;70629;-26.026;27.976;2023-12-20T02:48:48;10.85;;;8.88;;
81150;SDS011;70629;-26.026;27.976;2023-12-20T02:49:28;12.73;;;9.20;;
81150;SDS011;70629;-26.026;27.976;2023-12-20T02:50:08;11.80;;;9.85;;
81150;SDS011;70629;-26.026;27.976;2023-12-20T02:50:48;11.82;;;9.27;;
81150;SDS011;70629;-26.026;27.976;2023-12-20T02:51:28;12.18;;;9.57;;
81150;SDS011;70629;-26.026;27.976;2023-12-20T02:52:08;12.10;;;9.43;;
81150;SDS011;70629;-26.026;27.976;2023-12-20T02:52:48;10.20;;;8.77;;
81150;SDS011;70629;-26.026;27.976;2023-12-20T02:53:27;11.93;;;9.48;;
81150;SDS011;70629;-26.026;27.976;2023-12-20T02:54:07;12.40;;;10.30;;
81150;SDS011;70629;-26.026;27.976;2023-12-20T02:54:47;11.50;;;9.48;;
81150;SDS011;70629;-26.026;27.976;2023-12-20T02:55:27;12.10;;;9.82;;
81150;SDS011;70629;-26.026;27.976;2023-12-20T02:56:07;10.68;;;9.20;;
81150;SDS011;70629;-26.026;27.976;2023-12-20T02:56:47;11.05;;;9.45;;
81150;SDS011;70629;-26.026;27.976;2023-12-20T02:57:27;10.52;;;8.48;;
81150;SDS011;70629;-26.026;27.976;2023-12-20T02:58:07;10.85;;;8.98;;
81150;SDS011;70629;-26.026;27.976;2023-12-20T02:58:46;9.95;;;8.40;;
81150;SDS011;70629;-26.026;27.976;2023-12-20T02:59:26;10.13;;;8.40;;
81150;SDS011;70629;-26.026;27.976;2023-12-20T03:00:06;10.48;;;9.07;;
81150;SDS011;70629;-26.026;27.976;2023-12-20T03:00:49;10.70;;;9.07;;
81150;SDS011;70629;-26.026;27.976;2023-12-20T03:01:30;10.80;;;8.90;;
81150;SDS011;70629;-26.026;27.976;2023-12-20T03:02:10;10.32;;;9.23;;
81150;SDS011;70629;-26.026;27.976;2023-12-20T03:02:51;10.75;;;8.55;;
81150;SDS011;70629;-26.026;27.976;2023-12-20T03:03:31;12.95;;;8.35;;
81150;SDS011;70629;-26.026;27.976;2023-12-20T03:04:11;9.98;;;8.80;;
81150;SDS011;70629;-26.026;27.976;2023-12-20T03:04:51;10.45;;;8.68;;
81150;SDS011;70629;-26.026;27.976;2023-12-20T03:05:32;12.35;;;9.88;;
81150;SDS011;70629;-26.026;27.976;2023-12-20T03:06:16;11.10;;;8.98;;
81150;SDS011;70629;-26.026;27.976;2023-12-20T03:06:58;12.93;;;9.27;;
81150;SDS011;70629;-26.026;27.976;2023-12-20T03:07:38;11.98;;;9.15;;
81150;SDS011;70629;-26.026;27.976;2023-12-20T03:08:18;10.38;;;8.95;;
81150;SDS011;70629;-26.026;27.976;2023-12-20T03:08:58;11.05;;;9.30;;
81150;SDS011;70629;-26.026;27.976;2023-12-20T03:09:38;11.20;;;9.55;;
81150;SDS011;70629;-26.026;27.976;2023-12-20T03:10:37;11.75;;;8.93;;
81150;SDS011;70629;-26.026;27.976;2023-12-20T03:11:17;11.25;;;8.75;;
81150;SDS011;70629;-26.026;27.976;2023-12-20T03:11:57;12.02;;;9.30;;
81150;SDS011;70629;-26.026;27.976;2023-12-20T03:12:37;11.93;;;9.70;;
81150;SDS011;70629;-26.026;27.976;2023-12-20T03:13:17;12.13;;;9.82;;
81150;SDS011;70629;-26.026;27.976;2023-12-20T03:13:57;11.10;;;9.27;;
81150;SDS011;70629;-26.026;27.976;2023-12-20T03:14:37;11.48;;;9.00;;
81150;SDS011;70629;-26.026;27.976;2023-12-20T03:15:17;11.18;;;8.80;;
81150;SDS011;70629;-26.026;27.976;2023-12-20T03:15:56;10.38;;;9.25;;
81150;SDS011;70629;-26.026;27.976;2023-12-20T03:16:36;13.05;;;8.70;;
81150;SDS011;70629;-26.026;27.976;2023-12-20T03:17:16;11.18;;;8.02;;
81150;SDS011;70629;-26.026;27.976;2023-12-20T03:17:56;11.15;;;8.68;;
81150;SDS011;70629;-26.026;27.976;2023-12-20T03:18:37;10.48;;;8.80;;
81150;SDS011;70629;-26.026;27.976;2023-12-20T03:19:18;10.43;;;8.75;;
81150;SDS011;70629;-26.026;27.976;2023-12-20T03:19:58;11.00;;;8.90;;
81150;SDS011;70629;-26.026;27.976;2023-12-20T03:20:38;10.52;;;9.27;;
81150;SDS011;70629;-26.026;27.976;2023-12-20T03:21:19;10.20;;;8.70;;
81150;SDS011;70629;-26.026;27.976;2023-12-20T03:21:59;11.55;;;8.95;;
81150;SDS011;70629;-26.026;27.976;2023-12-20T03:22:39;10.57;;;8.88;;
81150;SDS011;70629;-26.026;27.976;2023-12-20T03:23:19;10.75;;;7.97;;
81150;SDS011;70629;-26.026;27.976;2023-12-20T03:23:59;9.63;;;7.60;;
81150;SDS011;70629;-26.026;27.976;2023-12-20T03:24:39;10.45;;;8.50;;
81150;SDS011;70629;-26.026;27.976;2023-12-20T03:25:19;11.93;;;9.40;;
81150;SDS011;70629;-26.026;27.976;2023-12-20T03:25:59;11.43;;;7.82;;
81150;SDS011;70629;-26.026;27.976;2023-12-20T03:26:39;9.15;;;7.70;;
81150;SDS011;70629;-26.026;27.976;2023-12-20T03:27:19;9.75;;;7.93;;
81150;SDS011;70629;-26.026;27.976;2023-12-20T03:27:59;9.43;;;7.88;;
81150;SDS011;70629;-26.026;27.976;2023-12-20T03:28:39;10.40;;;8.27;;
81150;SDS011;70629;-26.026;27.976;2023-12-20T03:29:19;10.98;;;7.90;;
81150;SDS011;70629;-26.026;27.976;2023-12-20T03:29:59;10.80;;;8.63;;
81150;SDS011;70629;-26.026;27.976;2023-12-20T03:30:38;9.95;;;8.63;;
81150;SDS011;70629;-26.026;27.976;2023-12-20T03:31:18;10.60;;;7.75;;
81150;SDS011;70629;-26.026;27.976;2023-12-20T03:31:59;11.55;;;8.95;;
81150;SDS011;70629;-26.026;27.976;2023-12-20T03:32:39;10.00;;;8.32;;
81150;SDS011;70629;-26.026;27.976;2023-12-20T03:33:19;12.95;;;8.93;;
81150;SDS011;70629;-26.026;27.976;2023-12-20T03:33:59;11.43;;;9.27;;
81150;SDS011;70629;-26.026;27.976;2023-12-20T03:34:39;10.88;;;9.02;;
81150;SDS011;70629;-26.026;27.976;2023-12-20T03:35:19;12.18;;;9.50;;
81150;SDS011;70629;-26.026;27.976;2023-12-20T03:35:59;12.80;;;9.52;;
81150;SDS011;70629;-26.026;27.976;2023-12-20T03:36:39;11.98;;;9.13;;
81150;SDS011;70629;-26.026;27.976;2023-12-20T03:37:19;11.82;;;9.30;;
81150;SDS011;70629;-26.026;27.976;2023-12-20T03:38:00;12.95;;;9.13;;
81150;SDS011;70629;-26.026;27.976;2023-12-20T03:38:40;13.40;;;9.75;;
81150;SDS011;70629;-26.026;27.976;2023-12-20T03:39:20;12.23;;;9.13;;
81150;SDS011;70629;-26.026;27.976;2023-12-20T03:39:59;12.32;;;9.50;;
81150;SDS011;70629;-26.026;27.976;2023-12-20T03:40:40;12.07;;;9.82;;
81150;SDS011;70629;-26.026;27.976;2023-12-20T03:41:20;10.80;;;8.43;;
81150;SDS011;70629;-26.026;27.976;2023-12-20T03:42:00;12.32;;;9.48;;
81150;SDS011;70629;-26.026;27.976;2023-12-20T03:42:39;10.73;;;9.05;;
81150;SDS011;70629;-26.026;27.976;2023-12-20T03:43:19;12.52;;;9.38;;
81150;SDS011;70629;-26.026;27.976;2023-12-20T03:43:59;11.60;;;9.60;;
81150;SDS011;70629;-26.026;27.976;2023-12-20T03:44:39;10.95;;;8.90;;
81150;SDS011;70629;-26.026;27.976;2023-12-20T03:45:20;12.10;;;9.23;;
81150;SDS011;70629;-26.026;27.976;2023-12-20T03:45:59;10.15;;;8.85;;
81150;SDS011;70629;-26.026;27.976;2023-12-20T03:46:39;12.63;;;8.85;;
81150;SDS011;70629;-26.026;27.976;2023-12-20T03:47:19;11.55;;;8.95;;
81150;SDS011;70629;-26.026;27.976;2023-12-20T03:47:59;12.43;;;8.48;;
81150;SDS011;70629;-26.026;27.976;2023-12-20T03:48:39;12.65;;;10.13;;
81150;SDS011;70629;-26.026;27.976;2023-12-20T03:49:19;11.95;;;8.65;;
81150;SDS011;70629;-26.026;27.976;2023-12-20T03:49:58;10.48;;;8.98;;
81150;SDS011;70629;-26.026;27.976;2023-12-20T03:50:38;12.80;;;9.25;;
81150;SDS011;70629;-26.026;27.976;2023-12-20T03:51:18;10.63;;;8.35;;